Time;durP1;ratioP1;P1;durP2;ratioP2;P2;SDS_P1;SDS_P2;PMS_P1;PMS_P2;Temp;Humidity;BMP_temperature;BMP_pressure;BME280_temperature;BME280_humidity;BME280_pressure;Samples;Min_cycle;Max_cycle;Signal;HPM_P1;HPM_P2
2023/03/01 00:00:35;;;;;;;17.65;14.10;;;-0.10;99.90;;;;;;2036741;29;20043;-72
2023/03/01 00:01:36;;;;;;;14.07;12.55;;;-0.10;99.90;;;;;;2036012;29;20059;-72
2023/03/01 00:02:36;;;;;;;15.30;13.60;;;-0.10;99.90;;;;;;2037064;29;20046;-72
2023/03/01 00:03:37;;;;;;;14.43;12.93;;;-0.20;99.90;;;;;;2036315;29;20064;-72
2023/03/01 00:04:37;;;;;;;15.25;12.50;;;-0.10;99.90;;;;;;2036862;29;20063;-72
2023/03/01 00:05:46;;;;;;;16.58;14.80;;;-0.10;99.90;;;;;;2037848;29;20495;-72
2023/03/01 00:06:47;;;;;;;17.90;14.23;;;-0.20;99.90;;;;;;2038857;29;20058;-72
2023/03/01 00:07:47;;;;;;;16.73;14.93;;;-0.20;99.90;;;;;;2036870;29;20801;-72
2023/03/01 00:08:48;;;;;;;16.02;12.27;;;-0.20;99.90;;;;;;2038884;29;20110;-72
2023/03/01 00:09:49;;;;;;;15.98;12.52;;;-0.20;99.90;;;;;;2037280;29;20032;-72
2023/03/01 00:10:59;;;;;;;19.73;13.25;;;-0.20;99.90;;;;;;2036409;29;20070;-72
2023/03/01 00:11:59;;;;;;;14.82;12.30;;;-0.20;99.90;;;;;;2036967;29;20392;-72
2023/03/01 00:13:00;;;;;;;15.82;13.07;;;-0.30;99.90;;;;;;2036349;29;20032;-72
2023/03/01 00:14:01;;;;;;;15.68;13.90;;;-0.30;99.90;;;;;;2035730;29;20048;-72
2023/03/01 00:15:02;;;;;;;13.75;12.35;;;-0.30;99.90;;;;;;2037929;29;20531;-72
2023/03/01 00:16:08;;;;;;;17.05;12.77;;;-0.30;99.90;;;;;;2038034;29;20387;-72
2023/03/01 00:17:09;;;;;;;14.48;11.75;;;-0.30;99.90;;;;;;2036805;29;20502;-72
2023/03/01 00:18:09;;;;;;;15.13;12.00;;;-0.30;99.90;;;;;;2037107;29;20657;-72
2023/03/01 00:19:14;;;;;;;14.18;12.48;;;-0.30;99.90;;;;;;2036607;29;20538;-72
2023/03/01 00:20:14;;;;;;;16.90;12.95;;;-0.30;99.90;;;;;;2037052;29;20020;-71
2023/03/01 00:21:15;;;;;;;14.38;11.93;;;-0.30;99.90;;;;;;2036993;29;20028;-71
2023/03/01 00:22:15;;;;;;;15.02;12.73;;;-0.30;99.90;;;;;;2037156;29;20468;-71
2023/03/01 00:23:16;;;;;;;19.00;14.77;;;-0.30;99.90;;;;;;2036467;29;20094;-71
2023/03/01 00:24:16;;;;;;;16.25;13.70;;;-0.30;99.90;;;;;;2038303;29;20031;-71
2023/03/01 00:25:17;;;;;;;15.07;13.07;;;-0.40;99.90;;;;;;2036897;29;20097;-71
2023/03/01 00:26:20;;;;;;;14.80;13.27;;;-0.40;99.90;;;;;;2037334;29;20039;-72
2023/03/01 00:27:20;;;;;;;13.00;11.55;;;-0.40;99.90;;;;;;2037922;29;20028;-72
2023/03/01 00:28:21;;;;;;;15.13;13.27;;;-0.40;99.90;;;;;;2037445;29;20577;-72
2023/03/01 00:29:25;;;;;;;14.32;12.27;;;-0.40;99.90;;;;;;2036372;29;20111;-72
2023/03/01 00:30:26;;;;;;;14.80;12.20;;;-0.40;99.90;;;;;;2037078;29;20074;-72
2023/03/01 00:31:29;;;;;;;15.45;12.25;;;-0.40;99.90;;;;;;2036448;29;20031;-72
2023/03/01 00:32:30;;;;;;;14.13;12.52;;;-0.40;99.90;;;;;;2036457;29;20053;-71
2023/03/01 00:33:31;;;;;;;13.90;12.50;;;-0.40;99.90;;;;;;2037260;29;20020;-72
2023/03/01 00:34:31;;;;;;;14.98;12.77;;;-0.40;99.90;;;;;;2037705;29;20052;-72
2023/03/01 00:35:32;;;;;;;13.52;12.02;;;-0.40;99.90;;;;;;2036305;29;20028;-72
2023/03/01 00:36:36;;;;;;;13.68;11.98;;;-0.50;99.90;;;;;;2036018;29;20593;-72
2023/03/01 00:37:36;;;;;;;15.75;12.90;;;-0.50;99.90;;;;;;2037835;29;20028;-72
2023/03/01 00:38:38;;;;;;;15.38;13.60;;;-0.50;99.90;;;;;;2038200;29;20023;-72
2023/03/01 00:39:39;;;;;;;13.35;11.95;;;-0.50;99.90;;;;;;2038253;29;20059;-72
2023/03/01 00:40:39;;;;;;;14.95;12.75;;;-0.50;99.90;;;;;;2037981;29;20046;-72
2023/03/01 00:41:41;;;;;;;17.30;13.48;;;-0.50;99.90;;;;;;2038210;29;20040;-72
2023/03/01 00:42:41;;;;;;;17.35;13.52;;;-0.50;99.90;;;;;;2039421;29;20024;-72
2023/03/01 00:43:42;;;;;;;15.27;13.52;;;-0.50;99.90;;;;;;2036565;29;20024;-72
2023/03/01 00:44:43;;;;;;;18.23;13.48;;;-0.50;99.90;;;;;;2036719;29;20031;-72
2023/03/01 00:45:43;;;;;;;13.32;11.77;;;-0.50;99.90;;;;;;2038194;29;20078;-72
2023/03/01 00:46:44;;;;;;;14.65;12.73;;;-0.60;99.90;;;;;;2035753;29;20040;-72
2023/03/01 00:47:44;;;;;;;14.10;12.48;;;-0.50;99.90;;;;;;2036337;29;20084;-72
2023/03/01 00:48:45;;;;;;;15.45;12.68;;;-0.60;99.90;;;;;;2035942;29;20499;-72
2023/03/01 00:49:46;;;;;;;15.77;14.13;;;-0.60;99.90;;;;;;2037440;29;20032;-71
2023/03/01 00:50:46;;;;;;;15.82;13.20;;;-0.60;99.90;;;;;;2036573;29;20523;-71
2023/03/01 00:51:47;;;;;;;15.60;14.00;;;-0.60;99.90;;;;;;2037091;29;20035;-71
2023/03/01 00:52:53;;;;;;;14.73;12.75;;;-0.60;99.90;;;;;;2034956;29;20349;-71
2023/03/01 00:53:56;;;;;;;16.15;12.95;;;-0.60;99.90;;;;;;2036945;29;20028;-72
2023/03/01 00:54:57;;;;;;;13.60;11.98;;;-0.60;99.90;;;;;;2028982;29;20028;-72
2023/03/01 00:55:58;;;;;;;17.52;12.95;;;-0.60;99.90;;;;;;2029541;29;20064;-72
2023/03/01 00:56:58;;;;;;;15.15;12.57;;;-0.60;99.90;;;;;;2037099;29;20028;-72
2023/03/01 00:57:59;;;;;;;13.32;11.93;;;-0.60;99.90;;;;;;2035901;29;20094;-72
2023/03/01 00:59:00;;;;;;;15.73;12.70;;;-0.70;99.90;;;;;;2027065;29;20500;-71
2023/03/01 01:00:00;;;;;;;13.80;11.35;;;-0.70;99.90;;;;;;2022751;29;20056;-71
2023/03/01 01:01:06;;;;;;;13.70;12.18;;;-0.70;99.90;;;;;;2036756;29;20020;-71
2023/03/01 01:02:07;;;;;;;16.42;12.60;;;-0.70;99.90;;;;;;2043620;28;20110;-72
2023/03/01 01:03:07;;;;;;;13.65;12.13;;;-0.70;99.90;;;;;;2038606;29;20509;-72
2023/03/01 01:04:11;;;;;;;13.35;11.50;;;-0.70;99.90;;;;;;2037340;29;20833;-72
2023/03/01 01:05:12;;;;;;;16.38;12.82;;;-0.70;99.90;;;;;;2037778;29;20127;-72
2023/03/01 01:06:22;;;;;;;16.88;13.30;;;-0.70;99.90;;;;;;2035858;29;20035;-72
2023/03/01 01:07:22;;;;;;;;;;;-0.70;99.90;;;;;;2037936;29;20034;-72
2023/03/01 01:08:23;;;;;;;15.43;13.35;;;-0.90;99.90;;;;;;2036758;29;19997;-72
2023/03/01 01:09:23;;;;;;;14.52;12.48;;;-0.80;99.90;;;;;;2037944;29;20492;-72
2023/03/01 01:10:24;;;;;;;14.80;12.05;;;-0.80;99.90;;;;;;2036064;29;20143;-71
2023/03/01 01:11:27;;;;;;;15.15;12.57;;;-0.80;99.90;;;;;;2026606;29;20080;-72
2023/03/01 01:12:27;;;;;;;15.23;12.50;;;-0.80;99.90;;;;;;2028797;29;20033;-71
2023/03/01 01:13:28;;;;;;;15.77;13.02;;;-0.80;99.90;;;;;;2038486;29;20570;-72
2023/03/01 01:14:29;;;;;;;15.63;11.63;;;-0.80;99.90;;;;;;2037244;29;20020;-72
2023/03/01 01:15:33;;;;;;;14.60;13.10;;;-0.80;99.90;;;;;;2027509;29;20067;-72
2023/03/01 01:16:33;;;;;;;15.63;11.70;;;-0.80;99.90;;;;;;2028098;29;20490;-72
2023/03/01 01:17:34;;;;;;;14.25;12.00;;;-0.80;99.90;;;;;;2036037;29;20806;-72
2023/03/01 01:18:34;;;;;;;15.10;12.63;;;-0.80;99.90;;;;;;2035205;29;20586;-72
2023/03/01 01:19:35;;;;;;;14.20;12.63;;;-0.80;99.90;;;;;;2037618;29;20439;-72
2023/03/01 01:20:37;;;;;;;14.63;12.68;;;-0.90;99.90;;;;;;2035772;29;20043;-71
2023/03/01 01:21:37;;;;;;;14.75;11.95;;;-0.90;99.90;;;;;;2038086;29;20533;-71
2023/03/01 01:22:38;;;;;;;13.82;12.38;;;-0.90;99.90;;;;;;2035729;29;20032;-71
2023/03/01 01:23:40;;;;;;;14.80;13.25;;;-0.90;99.90;;;;;;2035417;29;20036;-71
2023/03/01 01:24:40;;;;;;;17.10;13.40;;;-0.90;99.90;;;;;;2036908;29;20028;-71
2023/03/01 01:25:41;;;;;;;15.25;13.40;;;-0.90;99.90;;;;;;2036535;29;20142;-71
2023/03/01 01:26:42;;;;;;;14.95;12.68;;;-0.90;99.90;;;;;;2035969;29;20499;-71
2023/03/01 01:27:43;;;;;;;14.70;13.18;;;-0.90;99.90;;;;;;2036560;29;20185;-71
2023/03/01 01:28:43;;;;;;;13.82;12.43;;;-0.90;99.90;;;;;;2036691;29;20031;-71
2023/03/01 01:29:44;;;;;;;13.65;12.15;;;-0.90;99.90;;;;;;2036162;29;20038;-72
2023/03/01 01:30:44;;;;;;;14.18;12.68;;;-0.90;99.90;;;;;;2034612;29;20459;-72
2023/03/01 01:31:45;;;;;;;14.80;13.15;;;-1.00;99.90;;;;;;2036646;29;20062;-72
2023/03/01 01:32:45;;;;;;;14.48;12.98;;;-0.90;99.90;;;;;;2037622;29;20098;-71
2023/03/01 01:33:46;;;;;;;14.70;12.30;;;-1.00;99.90;;;;;;2034984;29;21551;-71
2023/03/01 01:34:47;;;;;;;13.45;12.05;;;-1.00;99.90;;;;;;2036927;29;20071;-71
2023/03/01 01:35:48;;;;;;;15.43;12.70;;;-1.00;99.90;;;;;;2035517;29;20024;-72
2023/03/01 01:36:56;;;;;;;13.27;11.82;;;-1.00;99.90;;;;;;2033962;29;20206;-71
2023/03/01 01:37:56;;;;;;;14.20;12.65;;;-1.00;99.90;;;;;;2035331;29;20110;-71
2023/03/01 01:38:57;;;;;;;12.73;11.43;;;-1.00;99.90;;;;;;2038853;29;20032;-71
2023/03/01 01:39:59;;;;;;;16.40;12.43;;;-1.00;99.90;;;;;;2038428;29;20036;-71
2023/03/01 01:40:59;;;;;;;13.48;12.07;;;-1.00;99.90;;;;;;2036074;29;20039;-71
2023/03/01 01:42:01;;;;;;;13.63;12.25;;;-1.00;99.90;;;;;;2038082;29;20128;-71
2023/03/01 01:43:02;;;;;;;15.45;12.77;;;-1.10;99.90;;;;;;2035413;29;20028;-71
2023/03/01 01:44:29;;;;;;;12.88;11.57;;;-1.10;99.90;;;;;;2035854;29;20035;-71
2023/03/01 01:45:33;;;;;;;12.55;11.25;;;-1.10;99.90;;;;;;2030448;29;20193;-72
2023/03/01 01:46:37;;;;;;;13.35;11.45;;;-1.10;99.90;;;;;;2021686;29;20104;-72
2023/03/01 01:47:38;;;;;;;12.88;11.60;;;-1.10;99.90;;;;;;2029246;29;20534;-72
2023/03/01 01:48:46;;;;;;;14.30;12.73;;;-1.10;99.90;;;;;;2036549;29;20036;-72
2023/03/01 01:49:54;;;;;;;15.90;12.00;;;-1.20;99.90;;;;;;2035716;29;20023;-71
2023/03/01 01:50:58;;;;;;;12.32;10.85;;;-1.10;99.90;;;;;;2036522;29;20491;-71
2023/03/01 01:52:13;;;;;;;13.10;11.60;;;-1.10;99.90;;;;;;2028767;29;20826;-72
2023/03/01 01:53:19;;;;;;;13.15;11.75;;;-1.20;99.90;;;;;;2030546;29;20088;-72
2023/03/01 01:54:37;;;;;;;12.60;11.20;;;-1.20;99.90;;;;;;2036179;29;20034;-72
2023/03/01 01:55:47;;;;;;;12.23;11.02;;;-1.20;99.90;;;;;;2036194;29;20110;-71
2023/03/01 01:56:53;;;;;;;14.40;12.70;;;-1.20;99.90;;;;;;2037305;29;20495;-71
2023/03/01 01:57:58;;;;;;;14.02;12.18;;;-1.20;99.90;;;;;;2035923;29;20287;-71
2023/03/01 01:58:58;;;;;;;13.50;11.55;;;-1.20;99.90;;;;;;2036743;29;20087;-71
2023/03/01 02:00:03;;;;;;;13.00;11.70;;;-1.20;99.90;;;;;;2036453;29;20123;-71
2023/03/01 02:01:05;;;;;;;15.10;13.07;;;-1.20;99.90;;;;;;2035530;29;20138;-71
2023/03/01 02:02:05;;;;;;;13.73;12.32;;;-1.20;99.90;;;;;;2036099;29;20031;-71
2023/03/01 02:03:28;;;;;;;13.50;12.07;;;-1.30;99.90;;;;;;2038313;29;20035;-71
2023/03/01 02:04:31;;;;;;;13.13;11.40;;;-1.30;99.90;;;;;;2036874;29;20027;-72
2023/03/01 02:05:49;;;;;;;12.10;10.60;;;-1.30;99.90;;;;;;2036990;29;20028;-71
2023/03/01 02:06:57;;;;;;;13.60;11.95;;;-1.30;99.90;;;;;;2036274;29;20238;-71
2023/03/01 02:07:58;;;;;;;12.68;10.95;;;-1.30;99.90;;;;;;2034676;29;20028;-71
2023/03/01 02:09:04;;;;;;;14.93;11.82;;;-1.30;99.90;;;;;;2036377;29;20036;-71
2023/03/01 02:10:06;;;;;;;13.90;12.50;;;-1.30;99.90;;;;;;2035944;29;20059;-71
2023/03/01 02:11:06;;;;;;;13.60;12.15;;;-1.30;99.90;;;;;;2035986;29;20027;-71
2023/03/01 02:12:07;;;;;;;13.82;12.13;;;-1.30;99.90;;;;;;2034279;29;20035;-71
2023/03/01 02:13:08;;;;;;;14.45;13.00;;;-1.30;99.90;;;;;;2035035;29;20147;-71
2023/03/01 02:14:09;;;;;;;14.73;12.95;;;-1.30;99.90;;;;;;2037388;29;20510;-71
2023/03/01 02:15:10;;;;;;;15.93;13.60;;;-1.30;99.90;;;;;;2036134;29;20619;-72
2023/03/01 02:16:14;;;;;;;15.05;12.88;;;-1.30;99.90;;;;;;2037292;29;20476;-71
2023/03/01 02:17:17;;;;;;;13.55;12.02;;;-1.40;99.90;;;;;;2034959;29;20407;-71
2023/03/01 02:18:20;;;;;;;14.23;11.82;;;-1.30;99.90;;;;;;2038135;29;20032;-71
2023/03/01 02:19:34;;;;;;;13.90;12.27;;;-1.30;99.90;;;;;;2036237;29;20024;-71
2023/03/01 02:20:49;;;;;;;14.15;11.05;;;-1.30;99.90;;;;;;2036811;29;21009;-71
2023/03/01 02:22:01;;;;;;;14.13;12.13;;;-1.40;99.90;;;;;;2037977;29;20463;-71
2023/03/01 02:23:02;;;;;;;14.07;12.68;;;-1.40;99.90;;;;;;2037707;29;20127;-71
2023/03/01 02:24:17;;;;;;;14.70;12.57;;;-1.40;99.90;;;;;;2026993;29;20035;-71
2023/03/01 02:26:00;;;;;;;12.55;11.25;;;-1.40;99.90;;;;;;2020917;29;20536;-71
2023/03/01 02:27:01;;;;;;;12.57;11.38;;;-1.50;99.90;;;;;;2022653;29;20058;-71
2023/03/01 02:28:15;;;;;;;13.45;12.02;;;-1.50;99.90;;;;;;2035563;29;20048;-71
2023/03/01 02:29:15;;;;;;;14.15;12.70;;;-1.50;99.90;;;;;;2036176;29;20131;-71
2023/03/01 02:30:18;;;;;;;13.00;11.68;;;-1.50;99.90;;;;;;2034521;29;20675;-72
2023/03/01 02:32:41;;;;;;;13.45;12.05;;;-1.40;99.90;;;;;;2036721;29;20118;-72
2023/03/01 02:33:43;;;;;;;13.90;12.50;;;-1.50;99.90;;;;;;2036083;29;20078;-71
2023/03/01 02:34:44;;;;;;;14.00;12.23;;;-1.50;99.90;;;;;;2037060;29;20092;-71
2023/03/01 02:35:45;;;;;;;12.93;11.63;;;-1.50;99.90;;;;;;2035990;29;20103;-71
2023/03/01 02:37:04;;;;;;;11.73;10.52;;;-1.50;99.90;;;;;;2036149;29;20095;-71
2023/03/01 02:38:08;;;;;;;12.10;10.90;;;-1.50;99.90;;;;;;2035689;29;20024;-71
2023/03/01 02:39:16;;;;;;;11.45;10.43;;;-1.50;99.90;;;;;;2036063;29;20016;-71
2023/03/01 02:40:18;;;;;;;13.65;12.25;;;-1.50;99.90;;;;;;2034702;29;20031;-71
2023/03/01 02:41:20;;;;;;;12.88;11.68;;;-1.50;99.90;;;;;;2035184;29;20027;-71
2023/03/01 02:42:26;;;;;;;14.00;11.82;;;-1.50;99.90;;;;;;2036625;29;20031;-71
2023/03/01 02:43:30;;;;;;;13.90;12.57;;;-1.50;99.90;;;;;;2036679;29;20024;-71
2023/03/01 02:44:31;;;;;;;14.13;12.63;;;-1.50;99.90;;;;;;2036380;29;20027;-71
2023/03/01 02:45:31;;;;;;;14.48;12.88;;;-1.50;99.90;;;;;;2035537;29;20032;-71
2023/03/01 02:46:32;;;;;;;13.00;11.80;;;-1.50;99.90;;;;;;2035158;29;20071;-71
2023/03/01 02:47:32;;;;;;;15.45;12.82;;;-1.50;99.90;;;;;;2043413;29;20031;-71
2023/03/01 02:48:43;;;;;;;14.88;13.48;;;-1.50;99.90;;;;;;2041725;28;20725;-71
2023/03/01 02:49:43;;;;;;;14.45;12.93;;;-1.50;99.90;;;;;;2037064;29;20027;-71
2023/03/01 02:51:04;;;;;;;13.32;12.02;;;-1.50;99.90;;;;;;2036812;29;20088;-71
2023/03/01 02:52:26;;;;;;;13.85;12.45;;;-1.50;99.90;;;;;;2037137;29;20475;-72
2023/03/01 02:53:48;;;;;;;14.48;11.65;;;-1.50;99.90;;;;;;2036346;29;20047;-71
2023/03/01 02:54:57;;;;;;;13.10;11.77;;;-1.60;99.90;;;;;;2035524;29;20780;-71
2023/03/01 02:55:58;;;;;;;13.38;11.98;;;-1.60;99.90;;;;;;2035136;29;20106;-71
2023/03/01 02:57:01;;;;;;;12.43;10.95;;;-1.60;99.90;;;;;;2035070;29;20031;-71
2023/03/01 02:58:03;;;;;;;14.30;12.50;;;-1.60;99.90;;;;;;2037028;29;20111;-71
2023/03/01 02:59:04;;;;;;;14.27;12.35;;;-1.60;99.90;;;;;;2030067;29;20031;-71
2023/03/01 03:00:18;;;;;;;13.10;11.73;;;-1.60;99.90;;;;;;2028843;29;20032;-71
2023/03/01 03:01:20;;;;;;;13.30;12.00;;;-1.60;99.90;;;;;;2037266;29;20035;-71
2023/03/01 03:02:35;;;;;;;15.05;13.15;;;-1.60;99.90;;;;;;2035024;29;20390;-71
2023/03/01 03:03:36;;;;;;;13.85;12.35;;;-1.60;99.90;;;;;;2028671;29;20039;-71
2023/03/01 03:04:36;;;;;;;14.57;12.95;;;-1.70;99.90;;;;;;2029799;29;20088;-71
2023/03/01 03:05:37;;;;;;;12.90;11.60;;;-1.60;99.90;;;;;;2036960;29;20036;-71
2023/03/01 03:06:37;;;;;;;14.82;12.90;;;-1.60;99.90;;;;;;2035911;29;20032;-71
2023/03/01 03:07:41;;;;;;;16.65;13.48;;;-1.60;99.90;;;;;;2036205;29;20134;-71
2023/03/01 03:08:41;;;;;;;14.18;12.80;;;-1.60;99.90;;;;;;2036858;29;20392;-71
2023/03/01 03:09:42;;;;;;;13.75;12.35;;;-1.60;99.90;;;;;;2036781;29;20032;-71
2023/03/01 03:10:43;;;;;;;14.10;12.70;;;-1.60;99.90;;;;;;2034028;29;20032;-71
2023/03/01 03:11:43;;;;;;;13.55;12.13;;;-1.60;99.90;;;;;;2035709;29;20410;-71
2023/03/01 03:12:44;;;;;;;12.52;11.32;;;-1.60;99.90;;;;;;2036010;29;20494;-71
2023/03/01 03:13:47;;;;;;;14.38;12.00;;;-1.60;99.90;;;;;;2038486;29;20033;-71
2023/03/01 03:14:48;;;;;;;14.32;12.93;;;-1.60;99.90;;;;;;2037870;29;20070;-71
2023/03/01 03:15:49;;;;;;;15.63;13.20;;;-1.70;99.90;;;;;;2035308;29;20102;-71
2023/03/01 03:16:50;;;;;;;16.10;14.15;;;-1.70;99.90;;;;;;2037599;29;20031;-71
2023/03/01 03:17:52;;;;;;;15.15;13.63;;;-1.70;99.90;;;;;;2034591;29;20043;-71
2023/03/01 03:18:53;;;;;;;13.77;12.32;;;-1.70;99.90;;;;;;2036424;29;20395;-71
2023/03/01 03:19:53;;;;;;;13.52;12.02;;;-1.70;99.90;;;;;;2035331;29;20064;-71
2023/03/01 03:20:54;;;;;;;14.43;12.98;;;-1.70;99.90;;;;;;2035984;29;20028;-71
2023/03/01 03:21:55;;;;;;;15.95;13.60;;;-1.70;99.90;;;;;;2035970;29;20038;-71
2023/03/01 03:22:58;;;;;;;15.25;13.63;;;-1.70;99.90;;;;;;2035055;29;20107;-71
2023/03/01 03:23:58;;;;;;;17.10;14.57;;;-1.70;99.90;;;;;;2027131;29;20029;-71
2023/03/01 03:24:59;;;;;;;15.45;14.02;;;-1.70;99.90;;;;;;2028647;29;20087;-71
2023/03/01 03:26:00;;;;;;;16.40;14.75;;;-1.70;99.90;;;;;;2036309;29;20126;-71
2023/03/01 03:27:00;;;;;;;15.70;14.13;;;-1.70;99.90;;;;;;2028030;29;20028;-71
2023/03/01 03:28:02;;;;;;;16.45;14.85;;;-1.70;99.90;;;;;;2028010;29;20032;-71
2023/03/01 03:29:02;;;;;;;17.30;14.88;;;-1.70;99.90;;;;;;2035332;29;20463;-71
2023/03/01 03:30:08;;;;;;;15.30;13.70;;;-1.70;99.90;;;;;;2036337;29;20654;-71
2023/03/01 03:31:09;;;;;;;16.38;13.93;;;-1.70;99.90;;;;;;2027972;29;20025;-71
2023/03/01 03:32:09;;;;;;;14.93;13.43;;;-1.70;99.90;;;;;;2027952;29;20087;-71
2023/03/01 03:33:11;;;;;;;16.00;14.30;;;-1.70;99.90;;;;;;2035380;29;20023;-71
2023/03/01 03:34:17;;;;;;;17.30;14.48;;;-1.70;99.90;;;;;;2035990;29;20038;-71
2023/03/01 03:35:24;;;;;;;15.93;14.23;;;-1.70;99.90;;;;;;2037833;29;20050;-71
2023/03/01 03:36:24;;;;;;;15.13;13.63;;;-1.70;99.90;;;;;;2035436;29;20118;-71
2023/03/01 03:38:45;;;;;;;15.93;14.30;;;-1.70;99.90;;;;;;2036194;29;20084;-71
2023/03/01 03:39:46;;;;;;;16.83;14.23;;;-1.80;99.90;;;;;;2037964;29;20036;-71
2023/03/01 03:40:49;;;;;;;16.48;14.88;;;-1.80;99.90;;;;;;2037695;29;20039;-71
2023/03/01 03:41:50;;;;;;;17.02;15.25;;;-1.80;99.90;;;;;;2037686;29;20114;-71
2023/03/01 03:42:50;;;;;;;15.80;14.30;;;-1.80;99.90;;;;;;2038342;29;20079;-71
2023/03/01 03:43:51;;;;;;;16.83;15.13;;;-1.80;99.90;;;;;;2039267;29;20055;-71
2023/03/01 03:44:51;;;;;;;17.65;15.43;;;-1.80;99.90;;;;;;2036798;29;20028;-71
2023/03/01 03:45:52;;;;;;;17.65;15.45;;;-1.80;99.90;;;;;;2042919;28;20042;-71
2023/03/01 03:46:52;;;;;;;17.33;13.93;;;-1.80;99.90;;;;;;2044541;28;20127;-71
2023/03/01 03:47:53;;;;;;;15.90;14.13;;;-1.80;99.90;;;;;;2037357;29;20024;-71
2023/03/01 03:48:53;;;;;;;14.90;13.50;;;-1.80;99.90;;;;;;2037903;29;20034;-71
2023/03/01 03:49:54;;;;;;;15.32;13.88;;;-1.80;99.90;;;;;;2038775;29;20062;-71
2023/03/01 03:50:56;;;;;;;13.75;12.35;;;-1.80;99.90;;;;;;2038128;29;20040;-71
2023/03/01 03:51:57;;;;;;;12.38;11.20;;;-1.80;99.90;;;;;;2037383;29;20054;-71
2023/03/01 03:52:57;;;;;;;12.45;11.25;;;-1.80;99.90;;;;;;2036995;29;20031;-71
2023/03/01 03:53:58;;;;;;;12.25;11.05;;;-1.80;99.90;;;;;;2038482;29;20020;-71
2023/03/01 03:54:58;;;;;;;14.80;13.32;;;-1.80;99.90;;;;;;2038442;29;20031;-71
2023/03/01 03:55:59;;;;;;;12.63;11.32;;;-1.80;99.90;;;;;;2037288;29;20027;-71
2023/03/01 03:56:59;;;;;;;14.50;13.10;;;-1.80;99.90;;;;;;2037115;29;20024;-71
2023/03/01 03:58:06;;;;;;;14.57;13.07;;;-1.80;99.90;;;;;;2035329;29;20060;-71
2023/03/01 03:59:06;;;;;;;12.88;11.57;;;-1.80;99.90;;;;;;2037308;29;20390;-71
2023/03/01 04:00:12;;;;;;;12.48;11.27;;;-1.80;99.90;;;;;;2036450;29;20058;-71
2023/03/01 04:01:13;;;;;;;14.18;12.35;;;-1.80;99.90;;;;;;2045097;28;20023;-71
2023/03/01 04:02:21;;;;;;;13.18;11.68;;;-1.80;99.90;;;;;;2043508;28;20033;-71
2023/03/01 04:03:24;;;;;;;12.45;11.15;;;-1.80;99.90;;;;;;2037617;29;20022;-71
2023/03/01 04:04:24;;;;;;;14.00;12.60;;;-1.90;99.90;;;;;;2036639;29;20628;-71
2023/03/01 04:05:25;;;;;;;14.52;11.93;;;-1.80;99.90;;;;;;2037932;29;20508;-71
2023/03/01 04:06:25;;;;;;;13.38;11.52;;;-1.90;99.90;;;;;;2044465;28;20098;-71
2023/03/01 04:07:26;;;;;;;12.73;11.43;;;-1.90;99.90;;;;;;2038705;29;20399;-72
2023/03/01 04:08:27;;;;;;;13.43;12.02;;;-1.90;99.90;;;;;;2028792;29;20052;-72
2023/03/01 04:09:30;;;;;;;15.80;13.20;;;-1.90;99.90;;;;;;2038041;29;20060;-71
2023/03/01 04:10:33;;;;;;;13.15;11.82;;;-1.90;99.90;;;;;;2038078;29;20052;-71
2023/03/01 04:11:34;;;;;;;12.85;11.52;;;-1.90;99.90;;;;;;2037086;29;20043;-71
2023/03/01 04:12:35;;;;;;;15.55;13.98;;;-1.90;99.90;;;;;;2035672;29;20024;-71
2023/03/01 04:13:36;;;;;;;14.52;13.13;;;-1.90;99.90;;;;;;2035924;29;20020;-71
2023/03/01 04:14:36;;;;;;;15.60;13.98;;;-1.90;99.90;;;;;;2028809;29;20028;-71
2023/03/01 04:15:37;;;;;;;14.70;13.20;;;-1.90;99.90;;;;;;2027851;29;20489;-71
2023/03/01 04:16:37;;;;;;;14.02;12.63;;;-1.90;99.90;;;;;;2036634;29;20489;-71
2023/03/01 04:17:40;;;;;;;13.43;12.13;;;-1.90;99.90;;;;;;2037647;29;20055;-71
2023/03/01 04:18:40;;;;;;;14.00;12.65;;;-1.90;99.90;;;;;;2036205;29;20067;-71
2023/03/01 04:19:43;;;;;;;13.18;11.80;;;-1.90;99.90;;;;;;2036969;29;20031;-71
2023/03/01 04:20:44;;;;;;;17.05;14.63;;;-1.90;99.90;;;;;;2035731;29;20027;-71
2023/03/01 04:21:45;;;;;;;14.48;12.98;;;-1.90;99.90;;;;;;2037661;29;20301;-71
2023/03/01 04:22:49;;;;;;;16.58;14.82;;;-1.90;99.90;;;;;;2036403;29;20168;-72
2023/03/01 04:23:52;;;;;;;15.45;13.98;;;-1.90;99.90;;;;;;2029068;29;20032;-71
2023/03/01 04:24:52;;;;;;;17.48;13.32;;;-1.90;99.90;;;;;;2029753;29;20084;-71
2023/03/01 04:25:55;;;;;;;13.77;12.35;;;-2.00;99.90;;;;;;2035586;29;20039;-71
2023/03/01 04:26:56;;;;;;;12.85;11.63;;;-2.00;99.90;;;;;;2037011;29;20031;-71
2023/03/01 04:27:56;;;;;;;13.75;12.40;;;-2.00;99.90;;;;;;2037697;29;20050;-71
2023/03/01 04:28:57;;;;;;;13.63;12.27;;;-2.00;99.90;;;;;;2036913;29;20030;-71
2023/03/01 04:29:57;;;;;;;13.95;12.50;;;-2.00;99.90;;;;;;2037959;29;20103;-72
2023/03/01 04:31:01;;;;;;;13.68;12.27;;;-2.00;99.90;;;;;;2037818;29;20533;-72
2023/03/01 04:32:02;;;;;;;13.48;11.95;;;-2.00;99.90;;;;;;2038159;29;20032;-72
2023/03/01 04:33:05;;;;;;;16.70;13.52;;;-2.00;99.90;;;;;;2037809;29;20019;-72
2023/03/01 04:34:05;;;;;;;12.65;11.45;;;-2.00;99.90;;;;;;2038358;29;20031;-71
2023/03/01 04:35:06;;;;;;;16.30;14.60;;;-2.00;99.90;;;;;;2037347;29;20110;-71
2023/03/01 04:36:08;;;;;;;15.65;12.70;;;-2.00;99.90;;;;;;2029823;29;20099;-71
2023/03/01 04:37:09;;;;;;;14.30;12.45;;;-2.00;99.90;;;;;;2028271;29;20115;-71
2023/03/01 04:38:09;;;;;;;14.93;13.52;;;-2.00;99.90;;;;;;2036303;29;20024;-71
2023/03/01 04:39:11;;;;;;;13.43;12.13;;;-2.00;99.90;;;;;;2037737;29;20047;-71
2023/03/01 04:40:16;;;;;;;15.00;13.02;;;-2.00;99.90;;;;;;2036273;29;20023;-71
2023/03/01 04:41:18;;;;;;;14.73;12.85;;;-2.10;99.90;;;;;;2036826;29;20379;-71
2023/03/01 04:42:19;;;;;;;13.30;11.65;;;-2.00;99.90;;;;;;2036410;29;20804;-71
2023/03/01 04:43:19;;;;;;;14.43;13.00;;;-2.10;99.90;;;;;;2035606;29;20547;-71
2023/03/01 04:44:20;;;;;;;14.80;13.15;;;-2.10;99.90;;;;;;2038183;29;20036;-72
2023/03/01 04:45:20;;;;;;;12.82;11.52;;;-2.10;99.90;;;;;;2037138;29;20098;-72
2023/03/01 04:46:21;;;;;;;14.40;13.00;;;-2.10;99.90;;;;;;2037358;29;20027;-72
2023/03/01 04:47:22;;;;;;;15.65;14.15;;;-2.10;99.90;;;;;;2029345;29;20036;-72
2023/03/01 04:48:22;;;;;;;16.02;14.32;;;-2.10;99.90;;;;;;2029124;29;20047;-72
2023/03/01 04:49:23;;;;;;;13.73;12.32;;;-2.10;99.90;;;;;;2038560;29;20082;-72
2023/03/01 04:50:25;;;;;;;15.77;14.15;;;-2.10;99.90;;;;;;2035080;29;20032;-71
2023/03/01 04:51:26;;;;;;;13.65;11.95;;;-2.10;99.90;;;;;;2036976;29;20151;-71
2023/03/01 04:52:26;;;;;;;14.57;13.18;;;-2.10;99.90;;;;;;2036410;29;20039;-71
2023/03/01 04:53:28;;;;;;;14.48;12.98;;;-2.10;99.90;;;;;;2037446;29;20035;-72
2023/03/01 04:54:30;;;;;;;14.25;11.60;;;-2.10;99.90;;;;;;2038553;29;20022;-72
2023/03/01 04:55:31;;;;;;;14.93;12.75;;;-2.10;99.90;;;;;;2036378;29;20078;-71
2023/03/01 04:56:31;;;;;;;14.68;12.90;;;-2.20;99.90;;;;;;2035980;29;20030;-71
2023/03/01 04:57:32;;;;;;;13.73;12.32;;;-2.20;99.90;;;;;;2036648;29;20031;-71
2023/03/01 04:58:33;;;;;;;14.65;13.35;;;-2.10;99.90;;;;;;2036897;29;20031;-72
2023/03/01 04:59:33;;;;;;;16.92;15.25;;;-2.20;99.90;;;;;;2037224;29;20102;-71
2023/03/01 05:00:34;;;;;;;15.30;13.80;;;-2.20;99.90;;;;;;2037146;29;20054;-71
2023/03/01 05:01:35;;;;;;;16.42;14.13;;;-2.20;99.90;;;;;;2036223;29;20476;-71
2023/03/01 05:02:35;;;;;;;14.20;12.73;;;-2.10;99.90;;;;;;2037817;29;20040;-71
2023/03/01 05:03:36;;;;;;;17.77;15.88;;;-2.20;99.90;;;;;;2035247;29;20173;-72
2023/03/01 05:04:36;;;;;;;14.63;13.25;;;-2.20;99.90;;;;;;2036362;29;20036;-72
2023/03/01 05:05:39;;;;;;;15.23;13.68;;;-2.20;99.90;;;;;;2037955;29;20039;-72
2023/03/01 05:06:39;;;;;;;15.65;14.20;;;-2.20;99.90;;;;;;2036952;29;20032;-72
2023/03/01 05:07:40;;;;;;;15.63;13.95;;;-2.20;99.90;;;;;;2037312;29;20598;-72
2023/03/01 05:08:41;;;;;;;18.60;15.45;;;-2.20;99.90;;;;;;2038240;29;20020;-72
2023/03/01 05:09:42;;;;;;;15.20;13.70;;;-2.20;99.90;;;;;;2035829;29;20035;-72
2023/03/01 05:10:48;;;;;;;14.90;13.40;;;-2.20;99.90;;;;;;2028530;29;20055;-72
2023/03/01 05:11:48;;;;;;;13.88;12.13;;;-2.20;99.90;;;;;;2030738;29;20032;-72
2023/03/01 05:12:49;;;;;;;16.70;13.32;;;-2.30;99.90;;;;;;2037528;29;20123;-72
2023/03/01 05:13:54;;;;;;;17.10;15.27;;;-2.20;99.90;;;;;;2037065;29;20512;-71
2023/03/01 05:14:55;;;;;;;17.45;14.23;;;-2.30;99.90;;;;;;2037066;29;20028;-71
2023/03/01 05:15:58;;;;;;;17.60;15.52;;;-2.30;99.90;;;;;;2036776;29;20040;-71
2023/03/01 05:17:03;;;;;;;15.30;13.75;;;-2.30;99.90;;;;;;2036344;29;20031;-72
2023/03/01 05:18:07;;;;;;;16.70;15.10;;;-2.30;99.90;;;;;;2036664;29;20090;-72
2023/03/01 05:19:15;;;;;;;17.95;16.00;;;-2.30;99.90;;;;;;2038262;29;20501;-72
2023/03/01 05:20:16;;;;;;;16.58;14.20;;;-2.30;99.90;;;;;;2037121;29;20032;-71
2023/03/01 05:21:17;;;;;;;19.83;16.67;;;-2.30;99.90;;;;;;2037907;29;20028;-71